createdAt,value
2023-01-13T00:01:43.032Z,100088.00
2023-01-13T00:04:12.209Z,100082.00
2023-01-13T00:06:40.794Z,100082.20
2023-01-13T00:09:09.481Z,100086.40
2023-01-13T00:11:38.476Z,100079.60
2023-01-13T00:14:07.161Z,100075.20
2023-01-13T00:16:35.853Z,100072.80
2023-01-13T00:19:04.538Z,100072.60
2023-01-13T00:21:33.327Z,100069.20
2023-01-13T00:24:02.354Z,100063.00
2023-01-13T00:26:33.978Z,100061.40
2023-01-13T00:29:04.215Z,100060.80
2023-01-13T00:31:33.124Z,100060.40
2023-01-13T00:34:02.905Z,100056.60
2023-01-13T00:36:31.682Z,100054.80
2023-01-13T00:39:00.410Z,100052.40
2023-01-13T00:41:49.351Z,100049.60
2023-01-13T00:44:18.664Z,100046.40
2023-01-13T00:46:47.517Z,100042.60
2023-01-13T00:49:16.433Z,100045.60
2023-01-13T00:51:45.227Z,100036.20
2023-01-13T00:54:14.325Z,100033.20
2023-01-13T00:56:43.103Z,100032.20
2023-01-13T00:59:13.874Z,100030.00
2023-01-13T01:01:42.695Z,100028.20
2023-01-13T01:04:12.544Z,100037.60
2023-01-13T01:06:41.232Z,100029.00
2023-01-13T01:09:15.542Z,100032.20
2023-01-13T01:11:45.055Z,100028.60
2023-01-13T01:14:15.293Z,100029.80
2023-01-13T01:16:43.857Z,100029.00
2023-01-13T01:19:12.569Z,100030.00
2023-01-13T01:21:42.161Z,100030.00
2023-01-13T01:24:11.151Z,100025.60
2023-01-13T01:26:39.938Z,100024.80
2023-01-13T01:29:13.128Z,100025.40
2023-01-13T01:31:42.454Z,100024.40
2023-01-13T01:34:11.426Z,100032.60
2023-01-13T01:36:40.421Z,100025.20
2023-01-13T01:39:10.440Z,100026.60
2023-01-13T01:41:39.329Z,100018.60
2023-01-13T01:44:50.651Z,100026.00
2023-01-13T01:47:20.632Z,100029.60
2023-01-13T01:49:50.345Z,100027.20
2023-01-13T01:52:23.498Z,100022.00
2023-01-13T01:54:59.090Z,100027.40
2023-01-13T01:57:43.136Z,100023.20
2023-01-13T02:00:13.029Z,100020.80
2023-01-13T02:02:46.930Z,100021.20
2023-01-13T02:05:16.439Z,100018.00
2023-01-13T02:07:49.780Z,100016.40
2023-01-13T02:10:27.876Z,100013.40
2023-01-13T02:13:02.696Z,100013.80
2023-01-13T02:15:48.591Z,100011.00
2023-01-13T02:18:32.732Z,100009.60
2023-01-13T02:21:29.124Z,100008.40
2023-01-13T02:24:54.637Z,100010.00
2023-01-13T02:27:54.720Z,100008.00
2023-01-13T02:31:20.268Z,100002.20
2023-01-13T02:34:39.526Z,100002.20
2023-01-13T02:37:17.308Z,100001.80
2023-01-13T02:40:00.002Z,99998.60
2023-01-13T02:43:09.669Z,100001.80
2023-01-13T02:46:02.374Z,99998.20
2023-01-13T02:48:32.620Z,99993.40
2023-01-13T02:51:08.313Z,99993.60
2023-01-13T02:53:49.577Z,99992.80
2023-01-13T02:56:19.948Z,99986.40
2023-01-13T02:58:49.407Z,99985.20
2023-01-13T03:01:18.708Z,99987.00
2023-01-13T03:03:47.287Z,99992.00
2023-01-13T03:06:46.813Z,99992.80
2023-01-13T03:09:55.731Z,99995.00
2023-01-13T03:12:44.484Z,99992.20
2023-01-13T03:15:50.137Z,99986.60
2023-01-13T03:18:59.592Z,99983.40
2023-01-13T03:21:57.448Z,99985.00
2023-01-13T03:24:46.727Z,99981.00
2023-01-13T03:27:18.278Z,99981.40
2023-01-13T03:29:57.068Z,99982.20
2023-01-13T03:32:36.035Z,99980.00
2023-01-13T03:35:22.336Z,99979.00
2023-01-13T03:38:07.194Z,99981.20
2023-01-13T03:40:53.906Z,99981.20
2023-01-13T03:43:49.933Z,99982.80
2023-01-13T03:46:32.653Z,99977.60
2023-01-13T03:49:04.725Z,99975.60
2023-01-13T03:51:38.979Z,99981.20
2023-01-13T03:54:11.917Z,99981.60
2023-01-13T03:56:47.652Z,99979.00
2023-01-13T03:59:28.335Z,99979.80
2023-01-13T04:02:27.852Z,99979.00
2023-01-13T04:05:04.142Z,99980.40
2023-01-13T04:08:18.879Z,99982.20
2023-01-13T04:11:33.548Z,99983.80
2023-01-13T04:14:04.000Z,99981.00
2023-01-13T04:16:33.135Z,99981.20
2023-01-13T04:19:01.659Z,99984.00
2023-01-13T04:21:31.130Z,99981.20
2023-01-13T04:23:59.639Z,99975.00
2023-01-13T04:26:28.228Z,99975.80
2023-01-13T04:28:56.915Z,99978.00
2023-01-13T04:31:25.526Z,99975.00
2023-01-13T04:33:54.284Z,99975.60
2023-01-13T04:36:27.765Z,99976.00
2023-01-13T04:38:56.470Z,99973.60
2023-01-13T04:41:25.369Z,99978.40
2023-01-13T04:43:53.948Z,99971.40
2023-01-13T04:46:23.457Z,99968.60
2023-01-13T04:48:51.948Z,99971.40
2023-01-13T04:51:20.723Z,99979.00
2023-01-13T04:53:51.569Z,99976.00
2023-01-13T04:56:20.146Z,99973.40
2023-01-13T04:58:48.734Z,99978.00
2023-01-13T05:01:17.467Z,99979.60
2023-01-13T05:03:46.104Z,99981.20
2023-01-13T05:06:14.696Z,99978.80
2023-01-13T05:08:43.683Z,99975.80
2023-01-13T05:11:30.699Z,99978.00
2023-01-13T05:14:17.922Z,99972.40
2023-01-13T05:17:03.811Z,99980.40
2023-01-13T05:19:40.900Z,99972.60
2023-01-13T05:22:28.221Z,99964.40
2023-01-13T05:25:15.649Z,99965.20
2023-01-13T05:27:44.333Z,99970.80
2023-01-13T05:30:14.226Z,99974.20
2023-01-13T05:32:42.938Z,99976.40
2023-01-13T05:35:11.730Z,99976.60
2023-01-13T05:37:40.320Z,99973.60
2023-01-13T05:40:30.294Z,99974.00
2023-01-13T05:43:21.261Z,99972.00
2023-01-13T05:45:58.850Z,99975.80
2023-01-13T05:48:39.907Z,99975.60
2023-01-13T05:51:11.928Z,99984.60
2023-01-13T05:53:41.253Z,99984.00
2023-01-13T05:56:11.307Z,99994.80
2023-01-13T05:58:39.950Z,99993.20
2023-01-13T06:01:10.269Z,99991.80
2023-01-13T06:03:38.964Z,99987.00
2023-01-13T06:06:09.255Z,99986.40
2023-01-13T06:08:39.685Z,99990.40
2023-01-13T06:11:08.603Z,99987.80
2023-01-13T06:13:37.295Z,99993.00
2023-01-13T06:16:06.579Z,99992.00
2023-01-13T06:18:35.179Z,99997.20
2023-01-13T06:21:05.127Z,99994.20
2023-01-13T06:23:35.624Z,99997.80
2023-01-13T06:26:34.935Z,99993.80
2023-01-13T06:29:04.656Z,99993.20
2023-01-13T06:31:39.368Z,99995.60
2023-01-13T06:34:13.195Z,100000.40
2023-01-13T06:36:48.802Z,100000.20
2023-01-13T06:39:22.791Z,100000.40
2023-01-13T06:42:12.522Z,100001.40
2023-01-13T06:44:41.205Z,99992.80
2023-01-13T06:47:10.094Z,99996.20
2023-01-13T06:49:38.585Z,99994.40
2023-01-13T06:52:07.269Z,99988.60
2023-01-13T06:54:36.058Z,99989.60
2023-01-13T06:57:05.565Z,99988.40
2023-01-13T06:59:35.598Z,99995.20
2023-01-13T07:02:04.650Z,99999.40
2023-01-13T07:04:33.362Z,100004.20
2023-01-13T07:07:02.047Z,100004.00
2023-01-13T07:09:30.761Z,100011.00
2023-01-13T07:11:59.929Z,100014.60
2023-01-13T07:14:47.052Z,100012.60
2023-01-13T07:17:15.644Z,100013.20
2023-01-13T07:19:44.217Z,100013.40
2023-01-13T07:22:14.440Z,100007.80
2023-01-13T07:24:42.921Z,100010.60
2023-01-13T07:27:11.407Z,100014.60
2023-01-13T07:29:40.091Z,100005.00
2023-01-13T07:32:08.773Z,99996.20
2023-01-13T07:34:37.468Z,100004.20
2023-01-13T07:37:06.150Z,100004.00
2023-01-13T07:39:34.733Z,100008.80
2023-01-13T07:42:22.268Z,100011.80
2023-01-13T07:44:50.859Z,100014.80
2023-01-13T07:47:23.538Z,100018.00
2023-01-13T07:49:52.157Z,100025.00
2023-01-13T07:52:20.802Z,100030.00
2023-01-13T07:54:50.407Z,100031.20
2023-01-13T07:57:18.994Z,100035.80
2023-01-13T07:59:47.680Z,100034.00
2023-01-13T08:02:16.630Z,100034.40
2023-01-13T08:04:45.361Z,100029.80
2023-01-13T08:07:14.153Z,100022.80
2023-01-13T08:09:42.740Z,100028.00
2023-01-13T08:12:29.969Z,100023.80
2023-01-13T08:14:58.643Z,100033.60
2023-01-13T08:17:27.229Z,100033.40
2023-01-13T08:19:55.812Z,100039.60
2023-01-13T08:22:24.847Z,100045.80
2023-01-13T08:24:53.595Z,100043.40
2023-01-13T08:27:22.280Z,100051.80
2023-01-13T08:29:51.078Z,100053.20
2023-01-13T08:32:19.654Z,100061.80
2023-01-13T08:34:48.465Z,100066.00
2023-01-13T08:37:17.129Z,100064.20
2023-01-13T08:39:45.820Z,100075.40
2023-01-13T08:42:14.608Z,100069.80
2023-01-13T08:44:43.303Z,100078.80
2023-01-13T08:47:12.091Z,100083.80
2023-01-13T08:49:42.010Z,100085.40
2023-01-13T08:52:10.895Z,100085.40
2023-01-13T08:54:40.604Z,100092.20
2023-01-13T08:57:09.234Z,100095.20
2023-01-13T08:59:38.184Z,100084.40
2023-01-13T09:02:21.070Z,100087.60
2023-01-13T09:04:51.105Z,100089.00
2023-01-13T09:07:20.302Z,100095.60
2023-01-13T09:09:48.903Z,100107.40
2023-01-13T09:12:37.252Z,100099.00
2023-01-13T09:15:06.907Z,100097.00
2023-01-13T09:17:35.650Z,100105.00
2023-01-13T09:20:06.123Z,100106.40
2023-01-13T09:22:36.710Z,100102.20
2023-01-13T09:25:06.031Z,100100.60
2023-01-13T09:27:34.591Z,100099.60
2023-01-13T09:30:03.792Z,100092.40
2023-01-13T09:32:33.095Z,100084.40
2023-01-13T09:35:01.820Z,100085.00
2023-01-13T09:37:40.138Z,100085.80
2023-01-13T09:40:22.845Z,100079.00
2023-01-13T09:43:16.179Z,100073.60
2023-01-13T09:45:54.080Z,100071.20
2023-01-13T09:48:30.887Z,100072.00
2023-01-13T09:51:27.613Z,100070.60
2023-01-13T09:54:32.514Z,100069.00
2023-01-13T09:57:01.628Z,100059.80
2023-01-13T09:59:36.605Z,100060.40
2023-01-13T10:02:20.614Z,100058.80
2023-01-13T10:05:17.155Z,100054.80
2023-01-13T10:08:03.165Z,100070.20
2023-01-13T10:10:51.821Z,100078.60
2023-01-13T10:13:25.926Z,100085.80
2023-01-13T10:16:12.901Z,100085.00
2023-01-13T10:19:10.698Z,100084.20
2023-01-13T10:22:23.831Z,100065.40
2023-01-13T10:25:22.008Z,100053.20
2023-01-13T10:27:54.379Z,100036.40
2023-01-13T10:30:39.089Z,100031.00
2023-01-13T10:33:21.037Z,100021.40
2023-01-13T10:36:00.299Z,100021.20
2023-01-13T10:38:43.155Z,100019.20
2023-01-13T10:41:20.688Z,100020.40
2023-01-13T10:43:52.454Z,100022.00
2023-01-13T10:46:21.333Z,100026.20
2023-01-13T10:48:58.856Z,100024.80
2023-01-13T10:51:39.700Z,100029.80
2023-01-13T10:54:12.964Z,100028.20
2023-01-13T10:56:45.531Z,100022.20
2023-01-13T10:59:20.136Z,100027.40
2023-01-13T11:02:25.203Z,100029.20
2023-01-13T11:04:58.354Z,100031.20
2023-01-13T11:07:50.762Z,100030.60
2023-01-13T11:10:31.584Z,100035.80
2023-01-13T11:13:11.267Z,100027.20
2023-01-13T11:15:47.546Z,100020.60
2023-01-13T11:18:52.088Z,99984.00
2023-01-13T11:21:39.308Z,99977.80
2023-01-13T11:24:43.220Z,100010.40
2023-01-13T11:27:30.136Z,100002.60
2023-01-13T11:30:10.303Z,99967.20
2023-01-13T11:33:14.108Z,100006.00
2023-01-13T11:36:12.793Z,100028.40
2023-01-13T11:39:18.755Z,100041.60
2023-01-13T11:42:24.828Z,100049.80
2023-01-13T11:45:19.311Z,100047.20
2023-01-13T11:47:54.492Z,100043.60
2023-01-13T11:50:34.614Z,100057.00
2023-01-13T11:54:06.269Z,100031.40
2023-01-13T11:57:02.293Z,100036.80
2023-01-13T11:59:36.311Z,100038.00
2023-01-13T12:02:14.154Z,100035.40
2023-01-13T12:04:45.861Z,100039.00
2023-01-13T12:07:35.042Z,100044.00
2023-01-13T12:10:13.344Z,100046.80
2023-01-13T12:13:00.294Z,100045.80
2023-01-13T12:15:49.021Z,100043.20
2023-01-13T12:18:35.625Z,100047.60
2023-01-13T12:21:28.110Z,100038.60
2023-01-13T12:24:21.746Z,100045.20
2023-01-13T12:27:30.981Z,100047.40
2023-01-13T12:30:02.260Z,100046.40
2023-01-13T12:32:38.219Z,100046.60
2023-01-13T12:35:36.463Z,100046.20
2023-01-13T12:38:34.430Z,100043.00
2023-01-13T12:41:27.607Z,100048.20
2023-01-13T12:44:16.278Z,100047.00
2023-01-13T12:46:53.535Z,100040.80
2023-01-13T12:49:34.520Z,100047.00
2023-01-13T12:52:14.104Z,100050.80
2023-01-13T12:54:45.327Z,100049.80
2023-01-13T12:57:17.067Z,100056.80
2023-01-13T13:00:05.244Z,100067.80
2023-01-13T13:02:39.966Z,100072.20
2023-01-13T13:05:14.361Z,100071.20
2023-01-13T13:08:16.118Z,100076.00
2023-01-13T13:11:33.031Z,100076.60
2023-01-13T13:14:05.567Z,100081.20
2023-01-13T13:17:02.087Z,100084.20
2023-01-13T13:19:30.534Z,100086.40
2023-01-13T13:22:14.373Z,100083.60
2023-01-13T13:25:03.059Z,100091.80
2023-01-13T13:27:37.654Z,100097.00
2023-01-13T13:30:43.800Z,100101.60
2023-01-13T13:33:39.541Z,100104.40
2023-01-13T13:36:36.900Z,100104.00
2023-01-13T13:39:44.706Z,100099.60
2023-01-13T13:42:39.405Z,100097.20
2023-01-13T13:45:48.395Z,100090.80
2023-01-13T13:48:34.734Z,100099.60
2023-01-13T13:51:23.083Z,100104.00
2023-01-13T13:53:53.002Z,100100.20
2023-01-13T13:56:29.275Z,100099.20
2023-01-13T13:58:57.847Z,100102.00
2023-01-13T14:01:35.508Z,100104.80
2023-01-13T14:04:20.112Z,100102.00
2023-01-13T14:07:16.439Z,100113.40
2023-01-13T14:09:51.283Z,100113.00
2023-01-13T14:12:26.063Z,100116.40
2023-01-13T14:14:57.714Z,100119.80
2023-01-13T14:17:29.370Z,100114.40
2023-01-13T14:20:08.191Z,100116.00
2023-01-13T14:22:37.184Z,100117.00
2023-01-13T14:25:47.144Z,100115.00
2023-01-13T14:28:34.151Z,100120.20
2023-01-13T14:31:04.291Z,100122.20
2023-01-13T14:33:48.052Z,100127.60
2023-01-13T14:36:20.307Z,100129.60
2023-01-13T14:39:04.057Z,100133.60
2023-01-13T14:41:48.564Z,100126.60
2023-01-13T14:44:36.912Z,100132.20
2023-01-13T14:47:26.997Z,100135.20
2023-01-13T14:50:17.093Z,100131.80
2023-01-13T14:52:54.932Z,100128.00
2023-01-13T14:55:31.862Z,100131.00
2023-01-13T14:58:23.248Z,100131.20
2023-01-13T15:01:27.430Z,100130.20
2023-01-13T15:04:18.388Z,100132.80
2023-01-13T15:06:52.056Z,100143.40
2023-01-13T15:09:39.028Z,100146.00
2023-01-13T15:12:22.333Z,100150.00
2023-01-13T15:14:53.558Z,100149.60
2023-01-13T15:17:22.716Z,100153.60
2023-01-13T15:19:54.159Z,100151.60
2023-01-13T15:22:24.275Z,100150.60
2023-01-13T15:24:52.961Z,100154.00
2023-01-13T15:27:26.768Z,100160.20
2023-01-13T15:29:55.360Z,100165.60
2023-01-13T15:32:24.042Z,100165.60
2023-01-13T15:34:53.959Z,100163.60
2023-01-13T15:37:23.564Z,100168.20
2023-01-13T15:39:52.260Z,100174.20
2023-01-13T15:42:39.472Z,100177.60
2023-01-13T15:45:32.949Z,100177.00
2023-01-13T15:48:02.993Z,100184.60
2023-01-13T15:50:33.330Z,100192.60
2023-01-13T15:53:02.511Z,100200.20
2023-01-13T15:55:35.365Z,100200.20
2023-01-13T15:58:05.012Z,100204.40
2023-01-13T16:00:34.750Z,100205.60
2023-01-13T16:03:03.493Z,100209.00
2023-01-13T16:05:33.133Z,100213.60
2023-01-13T16:08:03.028Z,100217.20
2023-01-13T16:10:32.225Z,100213.60
2023-01-13T16:13:02.372Z,100217.20
2023-01-13T16:15:31.836Z,100216.00
2023-01-13T16:18:04.978Z,100216.20
2023-01-13T16:20:35.768Z,100225.20
2023-01-13T16:23:04.969Z,100218.20
2023-01-13T16:25:34.763Z,100226.40
2023-01-13T16:28:04.711Z,100230.60
2023-01-13T16:30:37.606Z,100230.60
2023-01-13T16:33:07.121Z,100232.00
2023-01-13T16:35:35.939Z,100230.40
2023-01-13T16:38:26.968Z,100235.60
2023-01-13T16:40:57.575Z,100234.20
2023-01-13T16:43:26.248Z,100231.40
2023-01-13T16:45:54.959Z,100220.40
2023-01-13T16:48:23.832Z,100232.60
2023-01-13T16:50:52.535Z,100235.20
2023-01-13T16:53:21.211Z,100234.00
2023-01-13T16:55:49.804Z,100238.60
2023-01-13T16:58:20.951Z,100240.00
2023-01-13T17:00:49.661Z,100244.40
2023-01-13T17:03:18.762Z,100252.60
2023-01-13T17:05:47.976Z,100256.80
2023-01-13T17:08:18.367Z,100253.20
2023-01-13T17:10:48.287Z,100257.40
2023-01-13T17:13:17.483Z,100257.60
2023-01-13T17:15:46.293Z,100259.80
2023-01-13T17:18:14.951Z,100258.60
2023-01-13T17:20:43.542Z,100265.40
2023-01-13T17:23:12.333Z,100254.00
2023-01-13T17:25:41.045Z,100265.80
2023-01-13T17:28:09.806Z,100269.40
2023-01-13T17:30:38.405Z,100266.40
2023-01-13T17:33:07.172Z,100274.00
2023-01-13T17:35:39.343Z,100277.00
2023-01-13T17:38:08.035Z,100276.80
2023-01-13T17:40:37.856Z,100281.20
2023-01-13T17:43:06.440Z,100284.20
2023-01-13T17:45:35.060Z,100292.00
2023-01-13T17:48:03.698Z,100290.60
2023-01-13T17:50:34.337Z,100293.40
2023-01-13T17:53:02.916Z,100295.20
2023-01-13T17:55:31.601Z,100292.80
2023-01-13T17:58:00.395Z,100291.40
2023-01-13T18:00:30.035Z,100299.20
2023-01-13T18:02:58.769Z,100306.00
2023-01-13T18:05:28.254Z,100314.20
2023-01-13T18:07:56.891Z,100320.00
2023-01-13T18:10:25.767Z,100329.60
2023-01-13T18:12:54.454Z,100332.00
2023-01-13T18:15:23.242Z,100337.20
2023-01-13T18:17:52.143Z,100338.80
2023-01-13T18:20:40.283Z,100341.00
2023-01-13T18:23:37.446Z,100346.00
2023-01-13T18:26:36.032Z,100344.20
2023-01-13T18:29:06.163Z,100343.00
2023-01-13T18:31:35.033Z,100349.20
2023-01-13T18:34:04.024Z,100358.80
2023-01-13T18:36:32.706Z,100357.80
2023-01-13T18:39:01.399Z,100358.80
2023-01-13T18:41:49.138Z,100363.80
2023-01-13T18:44:17.921Z,100363.60
2023-01-13T18:46:46.710Z,100362.00
2023-01-13T18:49:15.410Z,100357.00
2023-01-13T18:51:44.192Z,100361.20
2023-01-13T18:54:12.871Z,100369.00
2023-01-13T18:56:41.972Z,100377.20
2023-01-13T18:59:10.864Z,100371.40
2023-01-13T19:01:39.547Z,100377.00
2023-01-13T19:04:15.854Z,100369.20
2023-01-13T19:06:52.384Z,100381.00
2023-01-13T19:09:27.335Z,100380.20
2023-01-13T19:11:58.168Z,100387.60
2023-01-13T19:14:42.400Z,100386.20
2023-01-13T19:17:16.676Z,100390.40
2023-01-13T19:19:51.924Z,100390.80
2023-01-13T19:22:28.805Z,100391.80
2023-01-13T19:24:58.969Z,100394.40
2023-01-13T19:27:29.095Z,100392.60
2023-01-13T19:29:58.935Z,100397.40
2023-01-13T19:32:28.721Z,100401.60
2023-01-13T19:34:59.575Z,100403.20
2023-01-13T19:37:30.651Z,100406.60
2023-01-13T19:40:00.511Z,100405.40
2023-01-13T19:42:47.732Z,100410.40
2023-01-13T19:45:35.403Z,100410.60
2023-01-13T19:48:05.961Z,100408.40
2023-01-13T19:50:41.619Z,100409.40
2023-01-13T19:53:18.017Z,100418.60
2023-01-13T19:55:48.789Z,100415.60
2023-01-13T19:58:21.316Z,100420.40
2023-01-13T20:00:51.792Z,100429.60
2023-01-13T20:03:25.182Z,100428.00
2023-01-13T20:05:54.872Z,100429.20
2023-01-13T20:08:23.548Z,100423.20
2023-01-13T20:11:11.995Z,100427.00
2023-01-13T20:13:40.696Z,100428.20
2023-01-13T20:16:10.126Z,100431.20
2023-01-13T20:18:38.670Z,100431.80
2023-01-13T20:21:08.033Z,100432.40
2023-01-13T20:23:36.773Z,100439.80
2023-01-13T20:26:08.266Z,100446.20
2023-01-13T20:28:39.672Z,100446.80
2023-01-13T20:31:10.168Z,100451.00
2023-01-13T20:33:40.066Z,100450.40
2023-01-13T20:36:22.519Z,100456.20
2023-01-13T20:38:51.018Z,100455.40
2023-01-13T20:41:38.636Z,100454.00
2023-01-13T20:44:11.530Z,100453.80
2023-01-13T20:46:43.625Z,100458.20
2023-01-13T20:49:15.870Z,100459.20
2023-01-13T20:51:45.463Z,100454.80
2023-01-13T20:54:14.662Z,100456.80
2023-01-13T20:56:43.451Z,100443.40
2023-01-13T20:59:12.049Z,100448.40
2023-01-13T21:01:41.719Z,100455.00
2023-01-13T21:04:10.772Z,100458.20
2023-01-13T21:06:39.427Z,100458.20
2023-01-13T21:09:08.120Z,100459.20
2023-01-13T21:11:55.347Z,100462.60
2023-01-13T21:14:45.535Z,100462.60
2023-01-13T21:17:35.524Z,100461.60
2023-01-13T21:20:07.380Z,100464.60
2023-01-13T21:22:36.269Z,100469.40
2023-01-13T21:25:06.298Z,100472.80
2023-01-13T21:27:35.086Z,100477.60
2023-01-13T21:30:04.280Z,100485.00
2023-01-13T21:32:33.065Z,100483.40
2023-01-13T21:35:02.464Z,100486.20
2023-01-13T21:37:31.060Z,100493.60
2023-01-13T21:39:59.630Z,100493.40
2023-01-13T21:42:47.063Z,100496.20
2023-01-13T21:45:34.609Z,100497.80
2023-01-13T21:48:03.481Z,100500.60
2023-01-13T21:50:32.225Z,100503.80
2023-01-13T21:53:01.210Z,100507.40
2023-01-13T21:55:30.116Z,100509.00
2023-01-13T21:58:07.044Z,100510.00
2023-01-13T22:00:35.620Z,100506.00
2023-01-13T22:03:07.326Z,100508.60
2023-01-13T22:05:36.870Z,100514.40
2023-01-13T22:08:07.426Z,100516.80
2023-01-13T22:10:36.320Z,100517.60
2023-01-13T22:13:23.966Z,100527.00
2023-01-13T22:15:53.094Z,100528.00
2023-01-13T22:18:21.717Z,100525.60
2023-01-13T22:20:50.808Z,100530.20
2023-01-13T22:23:21.796Z,100527.20
2023-01-13T22:25:50.546Z,100533.00
2023-01-13T22:28:24.353Z,100536.00
2023-01-13T22:30:54.062Z,100535.00
2023-01-13T22:33:22.545Z,100534.80
2023-01-13T22:35:57.286Z,100540.60
2023-01-13T22:38:25.968Z,100544.00
2023-01-13T22:40:59.259Z,100549.40
2023-01-13T22:43:28.147Z,100549.80
2023-01-13T22:46:12.463Z,100555.60
2023-01-13T22:48:41.900Z,100548.20
2023-01-13T22:51:16.787Z,100550.60
2023-01-13T22:53:45.329Z,100541.40
2023-01-13T22:56:20.882Z,100557.00
2023-01-13T22:58:54.835Z,100550.80
2023-01-13T23:01:25.280Z,100555.80
2023-01-13T23:03:54.665Z,100557.20
2023-01-13T23:06:25.856Z,100561.00
2023-01-13T23:08:55.047Z,100558.40
2023-01-13T23:11:27.054Z,100558.00
2023-01-13T23:14:02.057Z,100561.60
2023-01-13T23:16:34.113Z,100564.00
2023-01-13T23:19:04.039Z,100560.60
2023-01-13T23:21:36.252Z,100557.60
2023-01-13T23:24:07.252Z,100556.80
2023-01-13T23:26:36.158Z,100550.80
2023-01-13T23:29:08.937Z,100558.80
2023-01-13T23:31:38.476Z,100566.60
2023-01-13T23:34:07.863Z,100563.00
2023-01-13T23:36:41.029Z,100565.20
2023-01-13T23:39:09.728Z,100567.40
2023-01-13T23:41:38.499Z,100568.00
2023-01-13T23:44:07.403Z,100568.00
2023-01-13T23:46:36.211Z,100570.00
2023-01-13T23:49:05.342Z,100573.20
2023-01-13T23:51:34.191Z,100579.60
2023-01-13T23:54:02.963Z,100576.80
2023-01-13T23:56:32.090Z,100580.60
2023-01-13T23:59:00.635Z,100584.00
